createdAt,value
2018-07-02T00:00:05.715Z,0
2018-07-02T00:00:46.123Z,0
2018-07-02T00:01:26.500Z,0
2018-07-02T00:02:06.964Z,0
2018-07-02T00:02:47.433Z,0
2018-07-02T00:03:27.799Z,0
2018-07-02T00:04:08.338Z,0
2018-07-02T00:04:48.780Z,0
2018-07-02T00:05:29.253Z,0
2018-07-02T00:06:09.654Z,0
2018-07-02T00:06:50.021Z,0
2018-07-02T00:07:30.470Z,0
2018-07-02T00:08:10.933Z,0
2018-07-02T00:08:51.491Z,0
2018-07-02T00:09:31.832Z,0
2018-07-02T00:10:12.785Z,0
2018-07-02T00:10:53.361Z,0
2018-07-02T00:11:33.936Z,0
2018-07-02T00:12:14.357Z,0
2018-07-02T00:12:54.787Z,0
2018-07-02T00:13:35.343Z,0
2018-07-02T00:14:15.666Z,0
2018-07-02T00:14:56.309Z,0
2018-07-02T00:15:36.884Z,0
2018-07-02T00:16:17.682Z,0
2018-07-02T00:16:58.295Z,0
2018-07-02T00:17:38.703Z,0
2018-07-02T00:18:19.115Z,0
2018-07-02T00:18:59.527Z,0
2018-07-02T00:19:40.075Z,0
2018-07-02T00:20:20.449Z,0
2018-07-02T00:21:01.571Z,0
2018-07-02T00:21:42.052Z,0
2018-07-02T00:22:22.560Z,0
2018-07-02T00:23:03.609Z,0
2018-07-02T00:23:43.970Z,0
2018-07-02T00:24:24.508Z,0
2018-07-02T00:25:04.953Z,0
2018-07-02T00:25:45.728Z,0
2018-07-02T00:26:26.342Z,0
2018-07-02T00:27:06.569Z,0
2018-07-02T00:27:46.910Z,0
2018-07-02T00:28:27.295Z,0
2018-07-02T00:29:07.769Z,0
2018-07-02T00:29:49.817Z,0
2018-07-02T00:30:30.301Z,0
2018-07-02T00:31:10.803Z,0
2018-07-02T00:31:51.349Z,0
2018-07-02T00:32:31.762Z,0
2018-07-02T00:33:12.396Z,0
2018-07-02T00:33:53.021Z,0
2018-07-02T00:34:33.474Z,0
2018-07-02T00:35:13.945Z,0
2018-07-02T00:35:54.341Z,0
2018-07-02T00:36:34.722Z,0
2018-07-02T00:37:15.136Z,0
2018-07-02T00:37:55.523Z,0
2018-07-02T00:38:36.119Z,0
2018-07-02T00:39:16.375Z,0
2018-07-02T00:39:56.900Z,0
2018-07-02T00:40:37.640Z,0
2018-07-02T00:41:17.852Z,0
2018-07-02T00:41:58.288Z,0
2018-07-02T00:42:38.869Z,0
2018-07-02T00:43:19.102Z,0
2018-07-02T00:43:59.582Z,0
2018-07-02T00:44:40.279Z,0
2018-07-02T00:45:20.727Z,0
2018-07-02T00:46:01.183Z,0
2018-07-02T00:46:41.819Z,0
2018-07-02T00:47:22.329Z,0
2018-07-02T00:48:02.617Z,0
2018-07-02T00:48:43.090Z,0
2018-07-02T00:49:23.531Z,0
2018-07-02T00:50:04.113Z,0
2018-07-02T00:50:44.448Z,0
2018-07-02T00:51:25.101Z,0
2018-07-02T00:52:05.542Z,0
2018-07-02T00:52:46.020Z,0
2018-07-02T00:53:26.664Z,0
2018-07-02T00:54:07.149Z,0
2018-07-02T00:54:47.478Z,0
2018-07-02T00:55:27.906Z,0
2018-07-02T00:56:08.354Z,0
2018-07-02T00:56:48.780Z,0
2018-07-02T00:57:29.159Z,0
2018-07-02T00:58:09.755Z,0
2018-07-02T00:58:50.060Z,0
2018-07-02T00:59:30.384Z,0
2018-07-02T01:00:10.981Z,0
2018-07-02T01:00:51.443Z,0
2018-07-02T01:01:32.138Z,0
2018-07-02T01:02:12.577Z,0
2018-07-02T01:02:52.840Z,0
2018-07-02T01:03:33.231Z,0
2018-07-02T01:04:13.716Z,0
2018-07-02T01:04:54.244Z,0
2018-07-02T01:05:34.603Z,0
2018-07-02T01:06:15.455Z,0
2018-07-02T01:06:56.144Z,0
2018-07-02T01:07:36.639Z,0
2018-07-02T01:08:17.042Z,0
2018-07-02T01:08:57.399Z,0
2018-07-02T01:09:37.912Z,0
2018-07-02T01:10:20.235Z,0
2018-07-02T01:11:00.672Z,0
2018-07-02T01:11:41.087Z,0
2018-07-02T01:12:21.415Z,0
2018-07-02T01:13:01.853Z,0
2018-07-02T01:13:42.243Z,0
2018-07-02T01:14:22.680Z,0
2018-07-02T01:15:03.277Z,0
2018-07-02T01:15:43.680Z,0
2018-07-02T01:16:24.195Z,0
2018-07-02T01:17:05.164Z,0
2018-07-02T01:17:45.662Z,0
2018-07-02T01:18:25.862Z,0
2018-07-02T01:19:06.320Z,0
2018-07-02T01:19:46.775Z,0
2018-07-02T01:20:27.183Z,0
2018-07-02T01:21:07.568Z,0
2018-07-02T01:21:47.933Z,0
2018-07-02T01:22:28.348Z,0
2018-07-02T01:23:08.766Z,0
2018-07-02T01:23:49.205Z,0
2018-07-02T01:24:29.644Z,0
2018-07-02T01:25:09.969Z,0
2018-07-02T01:25:50.599Z,0
2018-07-02T01:26:31.020Z,0
2018-07-02T01:27:11.843Z,0
2018-07-02T01:27:52.277Z,0
2018-07-02T01:28:32.703Z,0
2018-07-02T01:29:13.110Z,0
2018-07-02T01:29:53.509Z,0
2018-07-02T01:30:33.982Z,0
2018-07-02T01:31:14.419Z,0
2018-07-02T01:31:54.803Z,0
2018-07-02T01:32:35.202Z,0
2018-07-02T01:33:15.655Z,0
2018-07-02T01:33:56.119Z,0
2018-07-02T01:34:36.573Z,0
2018-07-02T01:35:16.932Z,0
2018-07-02T01:35:57.245Z,0
2018-07-02T01:36:37.680Z,0
2018-07-02T01:37:18.024Z,0
2018-07-02T01:37:58.486Z,0
2018-07-02T01:38:38.865Z,0
2018-07-02T01:39:19.235Z,0
2018-07-02T01:39:59.638Z,0
2018-07-02T01:40:40.083Z,0
2018-07-02T01:41:20.494Z,0
2018-07-02T01:42:00.915Z,0
2018-07-02T01:42:41.354Z,0
2018-07-02T01:43:21.709Z,0
2018-07-02T01:44:02.138Z,0
2018-07-02T01:44:42.572Z,0
2018-07-02T01:45:22.967Z,0
2018-07-02T01:46:03.522Z,0
2018-07-02T01:46:43.794Z,0
2018-07-02T01:47:24.211Z,0
2018-07-02T01:48:04.800Z,0
2018-07-02T01:48:45.127Z,0
2018-07-02T01:49:25.499Z,0
2018-07-02T01:50:05.937Z,0
2018-07-02T01:50:46.300Z,0
2018-07-02T01:51:26.708Z,0
2018-07-02T01:52:07.269Z,0
2018-07-02T01:52:47.705Z,0
2018-07-02T01:53:28.044Z,0
2018-07-02T01:54:08.447Z,0
2018-07-02T01:54:48.832Z,0
2018-07-02T01:55:29.289Z,0
2018-07-02T01:56:09.633Z,0
2018-07-02T01:56:50.232Z,0
2018-07-02T01:57:30.491Z,0
2018-07-02T01:58:10.832Z,0
2018-07-02T01:58:51.281Z,0
2018-07-02T01:59:31.694Z,0
2018-07-02T02:00:12.217Z,0
2018-07-02T02:00:52.613Z,0
2018-07-02T02:01:33.052Z,0
2018-07-02T02:02:13.463Z,0
2018-07-02T02:02:53.875Z,0
2018-07-02T02:03:34.294Z,0
2018-07-02T02:04:14.706Z,0
2018-07-02T02:04:55.182Z,0
2018-07-02T02:05:35.602Z,0
2018-07-02T02:06:16.010Z,0
2018-07-02T02:06:56.435Z,0
2018-07-02T02:07:36.866Z,0
2018-07-02T02:08:17.296Z,0
2018-07-02T02:08:57.769Z,0
2018-07-02T02:09:38.140Z,0
2018-07-02T02:10:18.520Z,0
2018-07-02T02:10:58.886Z,0
2018-07-02T02:11:39.357Z,0
2018-07-02T02:12:19.738Z,0
2018-07-02T02:13:00.135Z,0
2018-07-02T02:13:40.632Z,0
2018-07-02T02:14:21.108Z,0
2018-07-02T02:15:01.495Z,0
2018-07-02T02:15:41.914Z,0
2018-07-02T02:16:22.241Z,0
2018-07-02T02:17:02.665Z,0
2018-07-02T02:17:43.730Z,0
2018-07-02T02:18:23.552Z,0
2018-07-02T02:19:04.024Z,0
2018-07-02T02:19:44.383Z,0
2018-07-02T02:20:24.736Z,0
2018-07-02T02:21:05.187Z,0
2018-07-02T02:21:45.611Z,0
2018-07-02T02:22:26.158Z,0
2018-07-02T02:23:07.105Z,0
2018-07-02T02:23:47.419Z,0
2018-07-02T02:24:27.803Z,0
2018-07-02T02:25:08.200Z,0
2018-07-02T02:25:48.599Z,0
2018-07-02T02:26:29.196Z,0
2018-07-02T02:27:09.545Z,0
2018-07-02T02:27:49.998Z,0
2018-07-02T02:28:30.400Z,0
2018-07-02T02:29:10.920Z,0
2018-07-02T02:29:51.393Z,0
2018-07-02T02:30:31.755Z,0
2018-07-02T02:31:12.188Z,0
2018-07-02T02:31:52.573Z,0
2018-07-02T02:32:32.911Z,0
2018-07-02T02:33:13.357Z,0
2018-07-02T02:33:53.907Z,0
2018-07-02T02:34:34.215Z,0
2018-07-02T02:35:14.616Z,0
2018-07-02T02:35:55.009Z,0
2018-07-02T02:36:35.527Z,0
2018-07-02T02:37:15.913Z,0
2018-07-02T02:37:56.298Z,0
2018-07-02T02:38:36.745Z,0
2018-07-02T02:39:17.118Z,0
2018-07-02T02:39:57.547Z,0
2018-07-02T02:40:37.897Z,0
2018-07-02T02:41:18.328Z,0
2018-07-02T02:41:58.776Z,0
2018-07-02T02:42:39.217Z,0
2018-07-02T02:43:19.521Z,0
2018-07-02T02:43:59.964Z,0
2018-07-02T02:44:40.409Z,0
2018-07-02T02:45:20.806Z,0
2018-07-02T02:46:01.189Z,0
2018-07-02T02:46:41.636Z,0
2018-07-02T02:47:22.032Z,0
2018-07-02T02:48:02.436Z,0
2018-07-02T02:48:42.826Z,0
2018-07-02T02:49:24.946Z,0
2018-07-02T02:50:05.395Z,0
2018-07-02T02:50:45.829Z,0
2018-07-02T02:51:26.280Z,0
2018-07-02T02:52:06.706Z,0
2018-07-02T02:52:47.051Z,0
2018-07-02T02:53:27.465Z,0
2018-07-02T02:54:08.015Z,0
2018-07-02T02:54:48.403Z,0
2018-07-02T02:55:30.657Z,0
2018-07-02T02:56:10.994Z,0
2018-07-02T02:56:51.429Z,0
2018-07-02T02:57:31.832Z,0
2018-07-02T02:58:12.321Z,0
2018-07-02T02:58:52.691Z,0
2018-07-02T02:59:33.056Z,0
2018-07-02T03:00:13.511Z,0
2018-07-02T03:00:53.865Z,0
2018-07-02T03:01:34.284Z,0
2018-07-02T03:02:14.742Z,0
2018-07-02T03:02:55.148Z,0
2018-07-02T03:03:35.513Z,0
2018-07-02T03:04:16.005Z,0
2018-07-02T03:04:56.312Z,0
2018-07-02T03:05:36.713Z,0
2018-07-02T03:06:17.114Z,0
2018-07-02T03:06:57.551Z,0
2018-07-02T03:07:37.985Z,0
2018-07-02T03:08:18.356Z,0
2018-07-02T03:08:58.777Z,0
2018-07-02T03:09:39.105Z,0
2018-07-02T03:10:19.505Z,0
2018-07-02T03:10:59.898Z,0
2018-07-02T03:11:40.465Z,0
2018-07-02T03:12:20.805Z,0
2018-07-02T03:13:01.255Z,0
2018-07-02T03:13:41.644Z,0
2018-07-02T03:14:22.062Z,0
2018-07-02T03:15:02.455Z,0
2018-07-02T03:15:42.886Z,0
2018-07-02T03:16:23.213Z,0
2018-07-02T03:17:03.641Z,0
2018-07-02T03:17:44.096Z,0
2018-07-02T03:18:24.570Z,0
2018-07-02T03:19:05.019Z,0
2018-07-02T03:19:45.406Z,0
2018-07-02T03:20:25.849Z,0
2018-07-02T03:21:06.250Z,0
2018-07-02T03:21:46.630Z,0
2018-07-02T03:22:27.087Z,0
2018-07-02T03:23:07.488Z,0
2018-07-02T03:23:47.908Z,0
2018-07-02T03:24:28.376Z,0
2018-07-02T03:25:08.819Z,0
2018-07-02T03:25:49.120Z,0
2018-07-02T03:26:29.578Z,0
2018-07-02T03:27:09.966Z,0
2018-07-02T03:27:50.342Z,0
2018-07-02T03:28:30.776Z,0
2018-07-02T03:29:11.253Z,0
2018-07-02T03:29:51.632Z,0
2018-07-02T03:30:31.987Z,0
2018-07-02T03:31:12.456Z,0
2018-07-02T03:31:53.971Z,0
2018-07-02T03:32:33.784Z,0
2018-07-02T03:33:14.299Z,0
2018-07-02T03:33:54.598Z,5
2018-07-02T03:34:35.051Z,5
2018-07-02T03:35:15.457Z,5
2018-07-02T03:35:55.877Z,5
2018-07-02T03:36:36.218Z,5
2018-07-02T03:37:16.660Z,5
2018-07-02T03:37:57.115Z,5
2018-07-02T03:38:37.488Z,5
2018-07-02T03:39:17.951Z,5
2018-07-02T03:39:58.381Z,5
2018-07-02T03:40:38.759Z,5
2018-07-02T03:41:19.166Z,5
2018-07-02T03:41:59.570Z,5
2018-07-02T03:42:39.934Z,5
2018-07-02T03:43:20.355Z,5
2018-07-02T03:44:00.925Z,5
2018-07-02T03:44:41.267Z,5
2018-07-02T03:45:21.759Z,5
2018-07-02T03:46:02.131Z,5
2018-07-02T03:46:42.558Z,5
2018-07-02T03:47:22.936Z,5
2018-07-02T03:48:03.396Z,5
2018-07-02T03:48:43.895Z,5
2018-07-02T03:49:24.269Z,10
2018-07-02T03:50:04.683Z,10
2018-07-02T03:50:45.165Z,10
2018-07-02T03:51:25.519Z,10
2018-07-02T03:52:05.938Z,10
2018-07-02T03:52:46.296Z,10
2018-07-02T03:53:26.749Z,10
2018-07-02T03:54:07.201Z,10
2018-07-02T03:54:47.616Z,10
2018-07-02T03:55:27.989Z,10
2018-07-02T03:56:08.479Z,10
2018-07-02T03:56:48.871Z,10
2018-07-02T03:57:29.239Z,10
2018-07-02T03:58:09.676Z,10
2018-07-02T03:58:50.052Z,10
2018-07-02T03:59:30.466Z,10
2018-07-02T04:00:10.893Z,10
2018-07-02T04:00:51.321Z,10
2018-07-02T04:01:31.742Z,15
2018-07-02T04:02:12.122Z,15
2018-07-02T04:52:11.270Z,140
2018-07-02T04:52:51.659Z,145
2018-07-02T04:53:32.054Z,145
2018-07-02T04:54:12.502Z,150
2018-07-02T04:54:52.867Z,150
2018-07-02T04:55:33.251Z,155
2018-07-02T04:56:13.697Z,155
2018-07-02T04:56:54.130Z,160
2018-07-02T05:00:39.672Z,170
2018-07-02T05:01:20.045Z,170
2018-07-02T05:02:00.423Z,175
2018-07-02T05:02:40.896Z,175
2018-07-02T05:03:21.247Z,180
2018-07-02T05:04:01.757Z,180
2018-07-02T05:04:42.119Z,180
2018-07-02T05:05:22.519Z,185
2018-07-02T05:06:02.947Z,190
2018-07-02T05:06:43.315Z,195
2018-07-02T05:18:30.896Z,255
2018-07-02T05:19:11.260Z,255
2018-07-02T05:19:51.697Z,260
2018-07-02T05:20:32.108Z,265
2018-07-02T05:22:51.075Z,280
2018-07-02T05:23:31.496Z,290
2018-07-02T05:24:12.120Z,290
2018-07-02T05:24:52.579Z,295
2018-07-02T05:25:32.943Z,290
2018-07-02T05:26:13.377Z,285
2018-07-02T05:26:53.786Z,280
2018-07-02T05:27:34.253Z,280
2018-07-02T05:28:14.929Z,280
2018-07-02T05:28:55.332Z,280
2018-07-02T05:29:35.750Z,285
2018-07-02T05:30:16.119Z,285
2018-07-02T05:30:56.534Z,285
2018-07-02T05:31:36.962Z,285
2018-07-02T05:32:17.411Z,285
2018-07-02T05:32:57.853Z,285
2018-07-02T05:33:38.494Z,290
2018-07-02T05:34:18.653Z,290
2018-07-02T05:34:59.099Z,290
2018-07-02T05:37:29.723Z,300
2018-07-02T05:38:10.124Z,305
2018-07-02T05:38:50.642Z,300
2018-07-02T05:39:31.737Z,305
2018-07-02T05:40:11.751Z,305
2018-07-02T05:40:52.415Z,310
2018-07-02T05:41:32.979Z,310
2018-07-02T05:44:02.856Z,315
2018-07-02T05:44:43.215Z,320
2018-07-02T05:50:46.693Z,340
2018-07-02T05:51:27.129Z,345
2018-07-02T05:52:07.476Z,345
2018-07-02T05:54:21.021Z,350
2018-07-02T05:55:01.499Z,355
2018-07-02T05:55:42.028Z,355
2018-07-02T05:56:22.536Z,360
2018-07-02T05:58:44.861Z,385
2018-07-02T05:59:25.283Z,375
2018-07-02T06:00:06.532Z,370
2018-07-02T06:00:47.030Z,370
2018-07-02T06:01:28.682Z,370
2018-07-02T06:02:09.521Z,375
2018-07-02T06:02:49.849Z,375
2018-07-02T06:03:38.823Z,375
2018-07-02T06:04:19.959Z,390
2018-07-02T06:05:04.374Z,400
2018-07-02T06:05:44.399Z,400
2018-07-02T06:06:24.778Z,410
2018-07-02T06:07:06.968Z,420
2018-07-02T06:07:48.050Z,415
2018-07-02T06:08:28.559Z,420
2018-07-02T06:09:09.577Z,420
2018-07-02T06:09:50.491Z,430
2018-07-02T06:10:32.131Z,445
2018-07-02T06:11:11.990Z,455
2018-07-02T06:11:52.512Z,465
2018-07-02T06:14:27.467Z,505
2018-07-02T06:15:07.885Z,510
2018-07-02T06:15:48.316Z,525
2018-07-02T06:16:28.755Z,535
2018-07-02T06:17:09.191Z,545
2018-07-02T06:17:49.521Z,555
2018-07-02T06:18:29.956Z,580
2018-07-02T06:19:10.443Z,595
2018-07-02T06:19:50.942Z,610
2018-07-02T06:20:31.606Z,630
2018-07-02T06:21:12.078Z,645
2018-07-02T06:21:52.704Z,755
2018-07-02T06:24:21.684Z,2015
2018-07-02T06:25:02.057Z,1920
2018-07-02T06:25:42.452Z,1655
2018-07-02T06:26:22.832Z,1335
2018-07-02T06:27:03.277Z,1295
2018-07-02T06:27:43.715Z,1335
2018-07-02T06:28:24.118Z,1370
2018-07-02T06:30:42.498Z,1405
2018-07-02T06:31:24.078Z,1420
2018-07-02T06:32:05.100Z,1400
2018-07-02T06:32:45.091Z,1380
2018-07-02T06:33:25.680Z,1435
2018-07-02T06:34:07.270Z,1475
2018-07-02T06:34:48.154Z,1495
2018-07-02T06:35:28.445Z,1505
2018-07-02T06:36:09.775Z,1485
2018-07-02T06:36:51.238Z,1495
2018-07-02T06:37:33.617Z,1520
2018-07-02T06:38:15.173Z,1520
2018-07-02T06:38:56.447Z,1475
2018-07-02T06:39:37.502Z,1465
2018-07-02T06:40:19.203Z,1460
2018-07-02T06:41:01.204Z,1470
2018-07-02T06:41:41.217Z,1510
2018-07-02T06:42:21.594Z,1630
2018-07-02T06:43:02.191Z,1695
2018-07-02T06:43:42.630Z,1750
2018-07-02T06:44:25.111Z,1765
2018-07-02T06:48:32.811Z,1700
2018-07-02T06:49:13.153Z,1700
2018-07-02T06:49:54.476Z,1705
2018-07-02T06:50:34.029Z,1700
2018-07-02T06:51:14.507Z,1705
2018-07-02T06:51:55.358Z,1665
2018-07-02T06:52:36.019Z,1385
2018-07-02T06:56:39.732Z,615
2018-07-02T06:57:20.386Z,610
2018-07-02T06:58:01.153Z,605
2018-07-02T06:58:41.663Z,595
2018-07-02T06:59:23.744Z,590
2018-07-02T07:00:04.953Z,590
2018-07-02T07:00:45.470Z,600
2018-07-02T07:03:17.565Z,635
2018-07-02T07:03:58.296Z,635
2018-07-02T07:04:40.811Z,655
2018-07-02T07:05:21.641Z,680
2018-07-02T07:06:04.388Z,710
2018-07-02T07:06:44.699Z,725
2018-07-02T07:07:27.506Z,720
2018-07-02T07:08:08.118Z,735
2018-07-02T07:08:48.568Z,765
2018-07-02T07:09:29.708Z,770
2018-07-02T07:10:12.146Z,735
2018-07-02T07:10:53.364Z,750
2018-07-02T07:11:33.646Z,740
2018-07-02T07:12:14.749Z,735
2018-07-02T07:12:56.524Z,730
2018-07-02T07:13:36.801Z,720
2018-07-02T07:14:17.891Z,700
2018-07-02T07:15:00.062Z,650
2018-07-02T07:15:41.101Z,645
2018-07-02T07:16:23.302Z,645
2018-07-02T07:17:03.711Z,630
2018-07-02T07:17:44.144Z,620
2018-07-02T07:18:27.199Z,625
2018-07-02T07:19:07.368Z,645
2018-07-02T07:19:47.806Z,660
2018-07-02T07:20:28.482Z,670
2018-07-02T07:23:00.582Z,620
2018-07-02T07:23:40.854Z,605
2018-07-02T07:24:21.321Z,600
2018-07-02T07:25:01.732Z,600
2018-07-02T07:25:42.339Z,590
2018-07-02T07:26:22.648Z,580
2018-07-02T07:27:04.465Z,585
2018-07-02T07:27:46.703Z,590
2018-07-02T07:28:27.126Z,575
2018-07-02T07:29:08.483Z,565
2018-07-02T07:29:49.985Z,545
2018-07-02T07:30:30.644Z,530
2018-07-02T07:32:49.117Z,400
2018-07-02T07:33:30.868Z,340
2018-07-02T07:34:11.323Z,295
2018-07-02T07:34:52.629Z,275
2018-07-02T07:35:33.073Z,265
2018-07-02T07:36:14.279Z,250
2018-07-02T07:36:54.676Z,235
2018-07-02T07:37:35.147Z,225
2018-07-02T07:38:15.494Z,215
2018-07-02T07:38:55.957Z,205
2018-07-02T07:39:36.359Z,195
2018-07-02T07:40:17.722Z,190
2018-07-02T07:40:58.849Z,185
2018-07-02T07:41:40.024Z,180
2018-07-02T07:42:20.628Z,175
2018-07-02T07:43:01.149Z,175
2018-07-02T07:43:41.978Z,165
2018-07-02T07:44:23.356Z,160
2018-07-02T07:45:03.600Z,155
2018-07-02T07:45:45.000Z,150
2018-07-02T07:46:25.243Z,150
2018-07-02T07:47:06.816Z,145
2018-07-02T07:47:47.714Z,140
2018-07-02T07:48:29.685Z,140
2018-07-02T07:49:10.207Z,135
2018-07-02T07:49:52.007Z,135
2018-07-02T07:50:32.197Z,130
2018-07-02T07:51:12.714Z,130
2018-07-02T07:51:53.337Z,125
2018-07-02T07:52:33.697Z,125
2018-07-02T07:53:14.308Z,125
2018-07-02T07:53:54.933Z,120
2018-07-02T07:54:36.214Z,120
2018-07-02T07:55:17.305Z,120
2018-07-02T07:55:57.817Z,115
2018-07-02T07:56:39.064Z,120
2018-07-02T07:57:19.704Z,115
2018-07-02T07:58:00.316Z,115
2018-07-02T07:58:41.255Z,110
2018-07-02T07:59:22.192Z,110
2018-07-02T08:00:02.698Z,110
2018-07-02T08:00:43.106Z,110
2018-07-02T08:01:24.349Z,105
2018-07-02T08:02:05.472Z,105
2018-07-02T08:02:46.113Z,105
2018-07-02T08:03:26.349Z,105
2018-07-02T08:04:07.845Z,105
2018-07-02T08:04:48.308Z,100
2018-07-02T08:05:29.414Z,100
2018-07-02T08:06:09.915Z,100
2018-07-02T08:06:51.250Z,100
2018-07-02T08:07:31.817Z,100
2018-07-02T08:08:12.564Z,95
2018-07-02T08:08:53.466Z,95
2018-07-02T08:09:33.979Z,95
2018-07-02T08:10:16.345Z,95
2018-07-02T08:10:56.919Z,95
2018-07-02T08:11:39.409Z,95
2018-07-02T08:12:20.767Z,95
2018-07-02T08:13:02.019Z,90
2018-07-02T08:13:42.845Z,90
2018-07-02T08:14:23.380Z,90
2018-07-02T08:15:04.060Z,90
2018-07-02T08:15:45.850Z,90
2018-07-02T08:16:28.745Z,90
2018-07-02T08:17:10.291Z,90
2018-07-02T08:17:50.048Z,90
2018-07-02T08:18:33.348Z,90
2018-07-02T08:19:16.798Z,90
2018-07-02T08:19:57.179Z,90
2018-07-02T08:20:37.943Z,85
2018-07-02T08:21:18.685Z,85
2018-07-02T08:21:59.189Z,85
2018-07-02T08:22:39.846Z,85
2018-07-02T08:23:20.278Z,85
2018-07-02T08:24:00.734Z,85
2018-07-02T08:24:41.616Z,85
2018-07-02T08:25:22.833Z,85
2018-07-02T08:26:03.681Z,85
2018-07-02T08:26:43.942Z,85
2018-07-02T08:27:25.312Z,85
2018-07-02T08:28:10.263Z,85
2018-07-02T08:28:51.417Z,85
2018-07-02T08:29:32.465Z,85
2018-07-02T08:30:16.293Z,85
2018-07-02T08:30:58.074Z,85
2018-07-02T08:31:38.916Z,80
2018-07-02T08:32:19.391Z,80
2018-07-02T08:33:00.455Z,80
2018-07-02T08:33:42.395Z,80
2018-07-02T08:34:22.941Z,80
2018-07-02T08:35:04.257Z,80
2018-07-02T08:35:45.037Z,80
2018-07-02T08:36:25.530Z,80
2018-07-02T08:37:08.784Z,80
2018-07-02T08:37:49.412Z,80
2018-07-02T08:38:30.389Z,80
2018-07-02T08:39:11.558Z,80
2018-07-02T08:39:52.392Z,80
2018-07-02T08:40:34.372Z,80
2018-07-02T08:41:15.670Z,80
2018-07-02T08:41:56.616Z,80
2018-07-02T08:42:38.279Z,80
2018-07-02T08:43:19.794Z,80
2018-07-02T08:44:00.022Z,80
2018-07-02T08:44:40.992Z,75
2018-07-02T08:45:22.511Z,70
2018-07-02T08:46:04.796Z,70
2018-07-02T08:46:45.322Z,70
2018-07-02T08:47:26.064Z,70
2018-07-02T08:48:06.646Z,70
2018-07-02T08:48:47.343Z,70
2018-07-02T08:49:28.805Z,70
2018-07-02T08:50:08.443Z,70
2018-07-02T08:50:48.896Z,70
2018-07-02T08:51:29.429Z,70
2018-07-02T08:52:10.724Z,70
2018-07-02T08:52:53.188Z,70
2018-07-02T08:53:33.729Z,70
2018-07-02T08:54:14.474Z,70
2018-07-02T08:54:55.824Z,70
2018-07-02T08:55:36.388Z,70
2018-07-02T08:56:16.880Z,70
2018-07-02T08:56:57.439Z,70
2018-07-02T08:57:37.837Z,70
2018-07-02T08:58:19.325Z,70
2018-07-02T08:58:59.234Z,70
2018-07-02T08:59:40.030Z,70
2018-07-02T09:00:20.772Z,70
2018-07-02T09:01:01.402Z,70
2018-07-02T09:01:43.328Z,70
2018-07-02T09:02:24.227Z,70
2018-07-02T09:03:05.437Z,70
2018-07-02T09:03:47.904Z,70
2018-07-02T09:04:29.295Z,70
2018-07-02T09:05:09.154Z,70
2018-07-02T09:05:49.624Z,70
2018-07-02T09:06:30.542Z,70
2018-07-02T09:07:11.126Z,75
2018-07-02T09:07:51.978Z,70
2018-07-02T09:08:32.477Z,70
2018-07-02T09:09:13.085Z,65
2018-07-02T09:09:54.308Z,75
2018-07-02T09:10:34.214Z,75
2018-07-02T09:11:14.922Z,75
2018-07-02T09:11:56.303Z,75
2018-07-02T09:12:37.046Z,75
2018-07-02T09:13:17.500Z,75
2018-07-02T09:13:58.175Z,75
2018-07-02T09:14:38.960Z,75
2018-07-02T09:15:19.204Z,75
2018-07-02T09:15:59.656Z,75
2018-07-02T09:16:41.021Z,75
2018-07-02T09:17:22.056Z,75
2018-07-02T09:18:02.590Z,75
2018-07-02T09:18:42.987Z,75
2018-07-02T09:19:24.278Z,75
2018-07-02T09:20:04.091Z,75
2018-07-02T09:20:45.338Z,70
2018-07-02T09:21:26.957Z,75
2018-07-02T09:22:07.403Z,70
2018-07-02T09:22:47.939Z,70
2018-07-02T09:23:28.448Z,70
2018-07-02T09:24:09.349Z,70
2018-07-02T09:24:50.355Z,70
2018-07-02T09:25:30.770Z,70
2018-07-02T09:26:11.183Z,70
2018-07-02T09:26:51.868Z,70
2018-07-02T09:27:32.786Z,70
2018-07-02T09:28:13.422Z,70
2018-07-02T09:28:54.182Z,70
2018-07-02T09:29:34.612Z,70
2018-07-02T09:30:15.133Z,70
2018-07-02T09:30:56.312Z,70
2018-07-02T09:31:36.138Z,70
2018-07-02T09:32:16.657Z,70
2018-07-02T09:32:57.104Z,70
2018-07-02T09:33:37.847Z,70
2018-07-02T09:34:21.089Z,70
2018-07-02T09:35:04.295Z,70
2018-07-02T09:35:42.989Z,70
2018-07-02T09:36:23.404Z,70
2018-07-02T09:37:03.888Z,70
2018-07-02T09:37:44.344Z,70
2018-07-02T09:38:24.708Z,65
2018-07-02T09:39:05.206Z,65
2018-07-02T09:39:45.649Z,65
2018-07-02T09:40:26.229Z,65
2018-07-02T09:41:06.807Z,65
2018-07-02T09:41:47.674Z,65
2018-07-02T09:42:27.954Z,65
2018-07-02T09:43:08.378Z,65
2018-07-02T09:43:48.831Z,65
2018-07-02T09:44:29.991Z,65
2018-07-02T09:45:10.908Z,65
2018-07-02T09:45:51.310Z,70
2018-07-02T09:54:34.368Z,60
2018-07-02T09:55:15.086Z,60
2018-07-02T09:55:57.212Z,60
2018-07-02T09:56:37.184Z,60
2018-07-02T09:57:18.694Z,60
2018-07-02T09:57:58.344Z,60
2018-07-02T09:58:38.987Z,60
2018-07-02T09:59:20.709Z,60
2018-07-02T10:00:00.310Z,60
2018-07-02T10:00:41.326Z,60
2018-07-02T10:01:23.482Z,60
2018-07-02T10:02:04.344Z,60
2018-07-02T10:02:45.036Z,60
2018-07-02T10:03:25.467Z,60
2018-07-02T10:04:05.944Z,60
2018-07-02T10:04:46.380Z,60
2018-07-02T10:47:50.932Z,60
2018-07-02T10:48:31.537Z,60
2018-07-02T10:49:12.306Z,60
2018-07-02T10:49:52.602Z,60
2018-07-02T10:50:33.184Z,60
2018-07-02T10:51:13.628Z,60
2018-07-02T10:51:54.614Z,60
2018-07-02T10:52:36.232Z,60
2018-07-02T10:53:17.843Z,60
2018-07-02T10:53:59.032Z,60
2018-07-02T10:54:39.740Z,60
2018-07-02T10:55:20.279Z,60
2018-07-02T10:56:01.820Z,60
2018-07-02T10:56:41.669Z,60
2018-07-02T10:57:22.068Z,60
2018-07-02T10:58:02.530Z,60
2018-07-02T10:58:42.915Z,60
2018-07-02T10:59:23.383Z,60
2018-07-02T11:00:04.565Z,60
2018-07-02T11:00:45.401Z,60
2018-07-02T11:01:26.740Z,60
2018-07-02T11:02:07.329Z,60
2018-07-02T11:02:48.816Z,60
2018-07-02T11:03:28.625Z,55
2018-07-02T11:04:09.289Z,55
2018-07-02T11:04:49.775Z,55
2018-07-02T11:05:30.347Z,55
2018-07-02T11:06:10.936Z,60
2018-07-02T11:06:51.330Z,60
2018-07-02T11:07:32.105Z,60
2018-07-02T11:08:12.718Z,60
2018-07-02T11:08:53.305Z,55
2018-07-02T11:09:34.814Z,55
2018-07-02T11:10:15.583Z,55
2018-07-02T11:10:56.982Z,55
2018-07-02T11:11:38.631Z,55
2018-07-02T11:12:19.099Z,55
2018-07-02T11:12:59.989Z,55
2018-07-02T11:13:41.109Z,55
2018-07-02T11:14:21.569Z,55
2018-07-02T11:15:02.888Z,55
2018-07-02T11:15:43.698Z,55
2018-07-02T11:16:24.090Z,55
2018-07-02T11:17:06.134Z,55
2018-07-02T11:17:46.592Z,55
2018-07-02T11:18:27.008Z,55
2018-07-02T11:19:08.328Z,55
2018-07-02T11:19:48.836Z,55
2018-07-02T11:20:29.383Z,55
2018-07-02T11:21:10.924Z,55
2018-07-02T11:21:51.137Z,55
2018-07-02T11:22:32.027Z,55
2018-07-02T11:23:13.260Z,55
2018-07-02T11:23:53.726Z,55
2018-07-02T11:24:34.227Z,55
2018-07-02T11:25:14.711Z,55
2018-07-02T11:25:55.144Z,55
2018-07-02T11:26:35.868Z,55
2018-07-02T11:27:16.420Z,55
2018-07-02T11:27:56.857Z,55
2018-07-02T11:28:37.463Z,55
2018-07-02T11:29:18.013Z,55
2018-07-02T11:29:58.402Z,55
2018-07-02T11:30:39.170Z,60
2018-07-02T11:31:20.285Z,55
2018-07-02T11:32:01.317Z,55
2018-07-02T11:32:42.260Z,55
2018-07-02T11:33:23.430Z,55
2018-07-02T11:34:03.984Z,55
2018-07-02T11:34:44.430Z,55
2018-07-02T11:35:25.176Z,55
2018-07-02T11:36:05.602Z,55
2018-07-02T11:36:47.747Z,55
2018-07-02T11:37:28.235Z,55
2018-07-02T11:38:09.535Z,55
2018-07-02T11:38:50.228Z,55
2018-07-02T11:39:31.647Z,55
2018-07-02T11:40:11.955Z,55
2018-07-02T11:40:52.582Z,55
2018-07-02T11:41:33.116Z,55
2018-07-02T11:42:14.471Z,55
2018-07-02T11:42:55.081Z,55
2018-07-02T11:43:35.555Z,55
2018-07-02T11:44:16.190Z,55
2018-07-02T11:44:56.581Z,55
2018-07-02T11:45:37.262Z,55
2018-07-02T11:46:17.899Z,55
2018-07-02T11:46:58.341Z,55
2018-07-02T11:47:38.730Z,55
2018-07-02T11:48:19.223Z,55
2018-07-02T11:48:59.835Z,55
2018-07-02T11:49:40.310Z,55
2018-07-02T11:50:20.688Z,55
2018-07-02T11:51:01.265Z,55
2018-07-02T11:51:41.667Z,55
2018-07-02T11:52:22.352Z,55
2018-07-02T11:53:02.800Z,55
2018-07-02T11:53:44.102Z,55
2018-07-02T11:54:25.426Z,55
2018-07-02T11:55:05.856Z,55
2018-07-02T11:55:47.420Z,55
2018-07-02T11:56:28.123Z,55
2018-07-02T11:57:08.683Z,55
2018-07-02T11:57:49.426Z,55
2018-07-02T11:58:29.900Z,55
2018-07-02T11:59:10.584Z,55
2018-07-02T11:59:51.422Z,55
2018-07-02T12:00:31.658Z,55
2018-07-02T12:01:12.367Z,55
2018-07-02T12:01:53.750Z,55
2018-07-02T12:02:34.413Z,55
2018-07-02T12:03:14.934Z,55
2018-07-02T12:03:55.839Z,55
2018-07-02T12:04:35.972Z,55
2018-07-02T12:05:16.425Z,55
2018-07-02T12:05:57.994Z,55
2018-07-02T12:06:40.879Z,55
2018-07-02T12:07:21.337Z,55